EGXW/WTN METAR and TAF weather

Enter ICAO airport designator
Station Type Date Time Source
EGXW METAR 2021/01/16 02:50 UTC NOAA

EGXW 160250Z AUTO 17015KT 9999 SCT013/// BKN080/// 01/M00 Q1022


Station Type Date Time Source
EGXW Decoded METAR 2021/01/16 02:50 UTC NOAA

Waddington, United Kingdom (EGXW) 53-10N 000-31W 0M
Jan 15, 2021 - 09:50 PM EST / 2021.01.16 0250 UTC
Wind: from the S (170 degrees) at 17 MPH (15 KT):0
Visibility: greater than 7 mile(s):0
Sky conditions: mostly cloudy
Temperature: 33 F (1 C)
Windchill: 23 F (-5 C):1
Dew Point: 32 F (0 C)
Relative Humidity: 93%
Pressure (altimeter): 30.18 in. Hg (1022 hPa)
ob: EGXW 160250Z AUTO 17015KT 9999 SCT013/// BKN080/// 01/M00 Q1022
cycle: 3

Station Type Date Time Source
EGXW TAF 2021/01/15 09:57 UTC NOAA

TAF TAF EGXW 150748Z 1509/1603 27005KT 0200 FZFG VV///
TEMPO 1509/1512 0800 FG PROB30
TEMPO 1512/1518 1500 BR BKN002 PROB40 1518/1521 8000 BR BKN010
BECMG 1521/1524 9999 NSW BKN010 PROB30
TEMPO 1600/1603 BKN006

Example: see airport list